Forside
METAR-TAF:

METAR-TAF

Lufthavne :

Exeter, England

Breddekreds: 50-44N, længdekreds: 003-25W, højde: 30 m

Aktuelle vejr

Denne rapport blev lavet for 38 minutter siden, kl. 13:50 UTC
Vind 12 kt fra nordøst
Temperatur 10°C
Fugtighed 57%
Tryk 1030 hPa
Sigt 10 km eller mere
Spredte skyer i en højde af 4200 ft

METAR: EGTE 311350Z 04012KT 9999 SCT042 10/02 Q1030

Tid: 15:28 (14:28 UTC)

Vejrudsigter

Denne rapport blev lavet for 3 timer og 21 minutter siden, kl. 11:07 UTC
Foreløbig gælder fra 31 på 12 UTC til 31 på 21 UTC
Vind 12 kt fra østnordøst
Sigt 10 km eller mere
Nogle få skyer i en højde af 3000 ft

TAF: EGTE 311107Z 3112/3121 06012KT 9999 FEW030

Vejrobservationer og prognoser fra mere end 4000 lufthavne (METAR og TAF).

De gule og røde prikker repræsenterer de meteorologiske stationer.

Flyt musen over at se navnet på stationen.

Så klik over at se vejr observationer og prognoser.

At skifte det kort: Klik på de grønne knapper med et sort kors for at zoome ind; på den grønne knap med en bindestreg for at zoome ud; eller på de grønne pile for tilstødende kort.


METAR-TAF: